Time;durP1;ratioP1;P1;durP2;ratioP2;P2;SDS_P1;SDS_P2;PMS_P1;PMS_P2;Temp;Humidity;BMP_temperature;BMP_pressure;BME280_temperature;BME280_humidity;BME280_pressure;Samples;Min_cycle;Max_cycle;Signal;HPM_P1;HPM_P2
2021/08/25 00:00:05;;;;;;;;;;;;;;;21.28;49.53;96226.69;1034635;28;1775;-68
2021/08/25 00:00:36;;;;;;;;;;;;;;;21.28;49.48;96224.03;1037449;28;1438;-68
2021/08/25 00:01:06;;;;;;;;;;;;;;;21.28;49.51;96224.03;1035996;28;1979;-67
2021/08/25 00:01:36;;;;;;;;;;;;;;;21.26;49.80;96220.88;1033910;28;1213;-68
2021/08/25 00:02:09;;;;;;;;;;;;;;;21.26;49.71;96220.88;1036010;28;1089;-68
2021/08/25 00:02:40;;;;;;;;;;;;;;;21.26;49.66;96221.69;1034003;28;1116;-68
2021/08/25 00:03:10;;;;;;;;;;;;;;;21.27;49.69;96211.94;1039508;28;1274;-68
2021/08/25 00:03:41;;;;;;;;;;;;;;;21.26;49.81;96216.41;1043899;28;1773;-68
2021/08/25 00:04:11;;;;;;;;;;;;;;;21.27;49.82;96217.97;1034531;28;2706;-68
2021/08/25 00:04:41;;;;;;;;;;;;;;;21.28;49.90;96224.03;1034157;28;2714;-68
2021/08/25 00:05:12;;;;;;;;;;;;;;;21.27;49.55;96209.31;1032208;28;1170;-69
2021/08/25 00:05:42;;;;;;;;;;;;;;;21.29;49.92;96221.13;1035467;28;1162;-68
2021/08/25 00:06:12;;;;;;;;;;;;;;;21.28;49.73;96211.66;1033822;28;1271;-68
2021/08/25 00:06:43;;;;;;;;;;;;;;;21.29;49.72;96213.22;1031560;28;1239;-68
2021/08/25 00:07:13;;;;;;;;;;;;;;;21.29;49.71;96220.38;1031398;28;1253;-69
2021/08/25 00:07:43;;;;;;;;;;;;;;;21.30;49.94;96221.94;1030307;28;1342;-68
2021/08/25 00:08:14;;;;;;;;;;;;;;;21.30;49.89;96216.66;1035028;28;1302;-69
2021/08/25 00:08:44;;;;;;;;;;;;;;;21.30;49.71;96216.66;1034552;28;1346;-68
2021/08/25 00:09:14;;;;;;;;;;;;;;;21.30;49.59;96216.66;1039604;28;2270;-69
2021/08/25 00:09:44;;;;;;;;;;;;;;;21.30;49.81;96222.72;1039669;28;2200;-68
2021/08/25 00:10:15;;;;;;;;;;;;;;;21.31;49.96;96218.25;1036369;28;1268;-68
2021/08/25 00:10:45;;;;;;;;;;;;;;;21.30;49.83;96217.47;1039745;28;1491;-68
2021/08/25 00:11:15;;;;;;;;;;;;;;;21.31;49.63;96218.25;1040124;28;1177;-68
2021/08/25 00:11:46;;;;;;;;;;;;;;;21.31;49.60;96218.25;1036227;28;1293;-69
2021/08/25 00:12:16;;;;;;;;;;;;;;;21.29;49.76;96223.78;1035426;28;1229;-68
2021/08/25 00:12:46;;;;;;;;;;;;;;;21.30;49.75;96216.66;1035768;28;1851;-68
2021/08/25 00:13:18;;;;;;;;;;;;;;;21.30;49.82;96221.94;1036316;28;1276;-68
2021/08/25 00:13:49;;;;;;;;;;;;;;;21.30;49.74;96230.66;1036146;28;1144;-68
2021/08/25 00:14:19;;;;;;;;;;;;;;;21.30;49.58;96214.03;1037678;28;2285;-67
2021/08/25 00:14:49;;;;;;;;;;;;;;;21.30;49.79;96219.28;1044100;28;1514;-69
2021/08/25 00:15:19;;;;;;;;;;;;;;;21.30;49.52;96216.66;1037895;28;1721;-68
2021/08/25 00:15:50;;;;;;;;;;;;;;;21.30;49.50;96222.72;1042964;28;1064;-68
2021/08/25 00:16:20;;;;;;;;;;;;;;;21.30;49.59;96211.38;1035191;28;1240;-69
2021/08/25 00:16:50;;;;;;;;;;;;;;;21.30;49.59;96221.94;1040288;28;1202;-68
2021/08/25 00:17:20;;;;;;;;;;;;;;;21.30;49.57;96225.38;1039670;28;1136;-68
2021/08/25 00:17:51;;;;;;;;;;;;;;;21.31;49.83;96218.25;1035612;28;1291;-68
2021/08/25 00:18:21;;;;;;;;;;;;;;;21.31;49.80;96213.75;1036364;28;1364;-68
2021/08/25 00:18:51;;;;;;;;;;;;;;;21.31;49.85;96219.03;1035228;28;1419;-67
2021/08/25 00:19:22;;;;;;;;;;;;;;;21.31;49.81;96218.25;1040108;28;1366;-67
2021/08/25 00:19:52;;;;;;;;;;;;;;;21.31;49.86;96219.03;1030202;28;2405;-68
2021/08/25 00:20:22;;;;;;;;;;;;;;;21.30;49.63;96217.47;1032219;28;1123;-68
2021/08/25 00:20:53;;;;;;;;;;;;;;;21.30;49.67;96217.47;1035914;28;1914;-68
2021/08/25 00:21:23;;;;;;;;;;;;;;;21.31;49.85;96223.53;1035346;28;1217;-68
2021/08/25 00:21:54;;;;;;;;;;;;;;;21.32;49.56;96219.81;1039887;28;1277;-67
2021/08/25 00:22:24;;;;;;;;;;;;;;;21.30;49.85;96216.66;1038012;28;1256;-69
2021/08/25 00:22:55;;;;;;;;;;;;;;;21.30;49.71;96221.94;1039924;28;1096;-68
2021/08/25 00:23:25;;;;;;;;;;;;;;;21.29;49.43;96221.13;1037502;28;1729;-68
2021/08/25 00:23:56;;;;;;;;;;;;;;;21.29;49.76;96221.13;1032067;28;1578;-68
2021/08/25 00:24:26;;;;;;;;;;;;;;;21.29;49.55;96215.09;1036473;28;1270;-68
2021/08/25 00:24:57;;;;;;;;;;;;;;;21.30;49.75;96221.94;1034573;28;2270;-68
2021/08/25 00:25:27;;;;;;;;;;;;;;;21.29;49.65;96209.81;1033866;28;1179;-67
2021/08/25 00:25:58;;;;;;;;;;;;;;;21.30;49.73;96211.38;1039603;28;1522;-68
2021/08/25 00:26:28;;;;;;;;;;;;;;;21.30;49.42;96216.66;1038123;28;1095;-68
2021/08/25 00:26:59;;;;;;;;;;;;;;;21.29;49.72;96215.09;1040870;28;1182;-69
2021/08/25 00:27:29;;;;;;;;;;;;;;;21.31;49.75;96218.25;1036993;28;1185;-68
2021/08/25 00:27:59;;;;;;;;;;;;;;;21.30;49.67;96208.75;1029147;28;2368;-67
2021/08/25 00:28:30;;;;;;;;;;;;;;;21.29;49.71;96215.09;1033178;28;1554;-68
2021/08/25 00:29:00;;;;;;;;;;;;;;;21.30;49.67;96211.38;1034910;28;1379;-69
2021/08/25 00:29:30;;;;;;;;;;;;;;;21.29;49.71;96205.31;1030663;28;1214;-68
2021/08/25 00:30:03;;;;;;;;;;;;;;;21.30;49.53;96206.13;1031007;28;2295;-68
2021/08/25 00:30:34;;;;;;;;;;;;;;;21.29;49.88;96210.59;1040606;28;1265;-67
2021/08/25 00:31:04;;;;;;;;;;;;;;;21.29;49.67;96207.94;1044160;28;1258;-68
2021/08/25 00:31:34;;;;;;;;;;;;;;;21.29;49.90;96204.56;1037896;28;1276;-69
2021/08/25 00:32:05;;;;;;;;;;;;;;;21.29;49.61;96215.09;1040487;28;1159;-69
2021/08/25 00:32:35;;;;;;;;;;;;;;;21.30;49.81;96206.13;1037173;28;1625;-68
2021/08/25 00:33:05;;;;;;;;;;;;;;;21.29;49.97;96207.19;1031569;28;923;-69
2021/08/25 00:33:36;;;;;;;;;;;;;;;21.29;49.65;96209.81;1035176;28;1209;-68
2021/08/25 00:34:06;;;;;;;;;;;;;;;21.29;49.64;96204.56;1031832;28;1129;-68
2021/08/25 00:34:37;;;;;;;;;;;;;;;21.28;49.65;96203.75;1039932;28;1205;-68
2021/08/25 00:35:07;;;;;;;;;;;;;;;21.28;49.74;96202.94;1037632;28;2202;-68
2021/08/25 00:35:37;;;;;;;;;;;;;;;21.28;49.61;96193.19;1039830;28;1233;-68
2021/08/25 00:36:08;;;;;;;;;;;;;;;21.29;49.75;96196.63;1031703;28;1371;-69
2021/08/25 00:36:38;;;;;;;;;;;;;;;21.29;49.75;96204.56;1029730;28;1337;-68
2021/08/25 00:37:09;;;;;;;;;;;;;;;21.27;49.68;96202.16;1027776;28;2420;-69
2021/08/25 00:37:39;;;;;;;;;;;;;;;21.28;49.77;96202.94;1030945;28;1306;-69
2021/08/25 00:38:09;;;;;;;;;;;;;;;21.27;49.70;96204.03;1031809;28;1141;-68
2021/08/25 00:38:39;;;;;;;;;;;;;;;21.27;49.77;96204.03;1031267;28;1088;-68
2021/08/25 00:39:10;;;;;;;;;;;;;;;21.28;49.73;96202.94;1027943;28;1277;-69
2021/08/25 00:39:40;;;;;;;;;;;;;;;21.26;49.60;96199.78;1032073;28;1215;-68
2021/08/25 00:40:11;;;;;;;;;;;;;;;21.26;49.76;96199.78;1038054;28;2321;-68
2021/08/25 00:40:43;;;;;;;;;;;;;;;21.26;49.70;96207.69;1040238;28;1123;-69
2021/08/25 00:41:13;;;;;;;;;;;;;;;21.26;49.78;96194.53;1044268;28;1985;-68
2021/08/25 00:41:43;;;;;;;;;;;;;;;21.25;49.63;96203.47;1038347;28;1367;-67
2021/08/25 00:42:14;;;;;;;;;;;;;;;21.26;49.69;96205.06;1031395;28;1343;-68
2021/08/25 00:42:44;;;;;;;;;;;;;;;21.26;49.62;96210.34;1030997;28;1197;-68
2021/08/25 00:43:14;;;;;;;;;;;;;;;21.26;49.82;96202.44;1030274;28;1634;-67
2021/08/25 00:43:45;;;;;;;;;;;;;;;21.26;49.82;96205.06;1037359;28;1259;-69
2021/08/25 00:44:16;;;;;;;;;;;;;;;21.26;49.76;96202.44;1039340;28;1263;-69
2021/08/25 00:44:46;;;;;;;;;;;;;;;21.25;49.62;96199.00;1034612;28;1207;-69
2021/08/25 00:45:16;;;;;;;;;;;;;;;21.25;49.95;96204.28;1034234;28;2274;-68
2021/08/25 00:45:47;;;;;;;;;;;;;;;21.25;49.63;96200.84;1036241;28;1179;-68
2021/08/25 00:46:18;;;;;;;;;;;;;;;21.24;49.85;96194.00;1034923;28;1291;-69
2021/08/25 00:46:49;;;;;;;;;;;;;;;21.26;49.82;96197.16;1038615;28;1232;-69
2021/08/25 00:47:19;;;;;;;;;;;;;;;21.24;49.90;96202.72;1038312;28;1423;-68
2021/08/25 00:47:49;;;;;;;;;;;;;;;21.24;49.89;96194.00;1034705;28;1678;-69
2021/08/25 00:48:20;;;;;;;;;;;;;;;21.24;49.76;96201.91;1037720;28;1530;-69
2021/08/25 00:48:51;;;;;;;;;;;;;;;21.24;49.90;96202.72;1039731;28;1140;-69
2021/08/25 00:49:22;;;;;;;;;;;;;;;21.24;49.68;96202.72;1038801;28;1281;-68
2021/08/25 00:49:52;;;;;;;;;;;;;;;21.24;49.91;96205.34;1043845;28;1205;-69
2021/08/25 00:50:22;;;;;;;;;;;;;;;21.24;49.72;96199.28;1046813;28;2385;-68
2021/08/25 00:50:52;;;;;;;;;;;;;;;21.24;49.89;96207.97;1043895;28;1221;-68
2021/08/25 00:51:23;;;;;;;;;;;;;;;21.25;49.70;96206.09;1043494;28;1319;-69
2021/08/25 00:51:53;;;;;;;;;;;;;;;21.25;49.92;96203.47;1039843;28;1361;-68
2021/08/25 00:52:24;;;;;;;;;;;;;;;21.24;49.70;96204.53;1034083;28;1342;-68
2021/08/25 00:52:54;;;;;;;;;;;;;;;21.23;49.78;96201.09;1035408;28;1248;-68
2021/08/25 00:53:24;;;;;;;;;;;;;;;21.22;49.73;96199.53;1035374;28;1266;-69
2021/08/25 00:53:55;;;;;;;;;;;;;;;21.22;49.71;96211.94;1035994;28;1171;-68
2021/08/25 00:54:25;;;;;;;;;;;;;;;21.22;49.64;96211.94;1038447;28;1257;-68
2021/08/25 00:54:57;;;;;;;;;;;;;;;21.22;49.43;96193.47;1036762;28;1277;-67
2021/08/25 00:55:27;;;;;;;;;;;;;;;21.21;49.78;96195.31;1033186;28;2431;-67
2021/08/25 00:55:58;;;;;;;;;;;;;;;21.21;49.81;96202.44;1034213;28;1233;-69
2021/08/25 00:56:28;;;;;;;;;;;;;;;21.20;49.75;96193.75;1033684;28;1147;-69
2021/08/25 00:56:59;;;;;;;;;;;;;;;21.20;49.81;96199.03;1036767;28;1278;-68
2021/08/25 00:57:29;;;;;;;;;;;;;;;21.21;49.57;96197.16;1039306;28;1894;-69
2021/08/25 00:58:00;;;;;;;;;;;;;;;21.21;49.58;96191.88;1038892;28;1239;-68
2021/08/25 00:58:30;;;;;;;;;;;;;;;21.19;49.71;96200.06;1034414;28;1317;-68
2021/08/25 00:59:01;;;;;;;;;;;;;;;21.19;49.74;96196.63;1030579;28;1090;-68
2021/08/25 00:59:31;;;;;;;;;;;;;;;21.17;49.77;96204.00;1037113;28;2537;-68
2021/08/25 01:00:09;;;;;;;;;;;;;;;21.18;49.82;96198.50;1038774;28;2537;-68
2021/08/25 01:00:44;;;;;;;;;;;;;;;21.18;49.59;96203.78;1039929;28;1304;-69
2021/08/25 01:01:26;;;;;;;;;;;;;;;21.17;49.79;96202.19;1031240;28;1982;-69
2021/08/25 01:01:59;;;;;;;;;;;;;;;21.17;49.47;96196.91;1035470;28;1223;-68
2021/08/25 01:02:30;;;;;;;;;;;;;;;21.17;49.69;96202.19;1038549;28;1249;-67
2021/08/25 01:03:09;;;;;;;;;;;;;;;21.16;49.73;96203.25;1046368;28;1045;-68
2021/08/25 01:03:46;;;;;;;;;;;;;;;21.15;49.58;96200.84;1039726;28;1224;-68
2021/08/25 01:04:32;;;;;;;;;;;;;;;21.15;49.66;96203.50;1038601;28;2102;-68
2021/08/25 01:05:03;;;;;;;;;;;;;;;21.15;49.75;96208.75;1039426;28;1061;-67
2021/08/25 01:05:34;;;;;;;;;;;;;;;21.14;49.83;96205.34;1041028;28;1940;-69
2021/08/25 01:06:05;;;;;;;;;;;;;;;21.16;49.66;96205.09;1036014;28;1464;-67
2021/08/25 01:06:36;;;;;;;;;;;;;;;21.15;49.54;96206.13;1034299;28;1258;-68
2021/08/25 01:07:06;;;;;;;;;;;;;;;21.16;49.66;96205.09;1030955;28;1680;-68
2021/08/25 01:07:36;;;;;;;;;;;;;;;21.15;49.82;96209.56;1035593;28;1293;-67
2021/08/25 01:08:07;;;;;;;;;;;;;;;21.16;49.74;96205.09;1040029;28;1243;-68
2021/08/25 01:08:39;;;;;;;;;;;;;;;21.16;49.84;96205.09;1038173;28;1402;-69
2021/08/25 01:09:11;;;;;;;;;;;;;;;21.16;49.81;96205.09;1034686;28;1231;-68
2021/08/25 01:09:45;;;;;;;;;;;;;;;21.15;49.69;96204.28;1036672;28;1307;-68
2021/08/25 01:10:21;;;;;;;;;;;;;;;21.16;49.66;96199.81;1036723;28;2540;-67
2021/08/25 01:11:07;;;;;;;;;;;;;;;21.16;49.92;96207.72;1042939;28;1199;-67
2021/08/25 01:12:00;;;;;;;;;;;;;;;21.17;49.68;96207.44;1046747;28;1164;-68
2021/08/25 01:12:51;;;;;;;;;;;;;;;21.16;49.75;96199.81;1044097;28;945;-67
2021/08/25 01:13:41;;;;;;;;;;;;;;;21.17;49.99;96201.38;1046966;28;1090;-67
2021/08/25 01:14:12;;;;;;;;;;;;;;;21.16;49.72;96192.69;1045081;28;1201;-67
2021/08/25 01:14:42;;;;;;;;;;;;;;;21.16;49.80;96200.59;1039901;28;1199;-67
2021/08/25 01:15:13;;;;;;;;;;;;;;;21.15;49.97;96206.94;1041662;28;2458;-67
2021/08/25 01:15:43;;;;;;;;;;;;;;;21.16;49.84;96202.44;1043778;28;1170;-68
2021/08/25 01:16:14;;;;;;;;;;;;;;;21.16;50.00;96199.81;1039582;28;1222;-69
2021/08/25 01:16:44;;;;;;;;;;;;;;;21.15;49.86;96208.75;1034487;28;1506;-68
2021/08/25 01:17:25;;;;;;;;;;;;;;;21.15;49.93;96204.28;1027802;28;1556;-66
2021/08/25 01:17:56;;;;;;;;;;;;;;;21.15;49.73;96206.13;1028862;28;1220;-67
2021/08/25 01:18:27;;;;;;;;;;;;;;;21.15;49.67;96198.22;1035823;28;1602;-70
2021/08/25 01:19:17;;;;;;;;;;;;;;;21.15;49.78;96200.84;1038163;28;1470;-68
2021/08/25 01:20:02;;;;;;;;;;;;;;;21.15;50.02;96203.50;1039804;28;1128;-67
2021/08/25 01:20:45;;;;;;;;;;;;;;;21.14;49.77;96197.44;1042506;28;1320;-67
2021/08/25 01:21:34;;;;;;;;;;;;;;;21.14;49.68;96204.56;1035844;28;1321;-69
2021/08/25 01:22:04;;;;;;;;;;;;;;;21.14;49.78;96202.72;1035549;28;1337;-68
2021/08/25 01:22:35;;;;;;;;;;;;;;;21.13;49.58;96200.34;1031748;28;1464;-68
2021/08/25 01:23:05;;;;;;;;;;;;;;;21.13;49.51;96202.97;1037246;28;1061;-68
2021/08/25 01:23:43;;;;;;;;;;;;;;;21.13;49.65;96200.34;1035734;28;1254;-68
2021/08/25 01:24:14;;;;;;;;;;;;;;;21.11;49.91;96199.81;1039639;28;1656;-69
2021/08/25 01:24:45;;;;;;;;;;;;;;;21.11;49.75;96203.25;1033434;28;1184;-69
2021/08/25 01:25:16;;;;;;;;;;;;;;;21.12;49.84;96194.28;1030140;28;2479;-68
2021/08/25 01:25:47;;;;;;;;;;;;;;;21.12;49.84;96199.56;1031467;28;1196;-68
2021/08/25 01:26:17;;;;;;;;;;;;;;;21.12;49.59;96188.22;1030692;28;1261;-68
2021/08/25 01:26:50;;;;;;;;;;;;;;;21.13;49.76;96200.34;1031098;28;1177;-68
2021/08/25 01:27:21;;;;;;;;;;;;;;;21.11;49.67;96195.34;1031933;28;1084;-69
2021/08/25 01:27:52;;;;;;;;;;;;;;;21.11;49.55;96191.91;1030649;28;1148;-67
2021/08/25 01:28:23;;;;;;;;;;;;;;;21.11;49.70;96197.16;1035224;28;1205;-68
2021/08/25 01:28:54;;;;;;;;;;;;;;;21.10;49.60;96190.34;1034165;28;1151;-68
2021/08/25 01:29:26;;;;;;;;;;;;;;;21.10;49.55;96190.34;1034898;28;1171;-69
2021/08/25 01:29:56;;;;;;;;;;;;;;;21.09;49.75;96184.25;1035707;28;2532;-69
2021/08/25 01:30:27;;;;;;;;;;;;;;;21.08;49.80;96194.00;1025747;28;2499;-67
2021/08/25 01:30:58;;;;;;;;;;;;;;;21.08;49.51;96194.00;1035932;28;1273;-68
2021/08/25 01:31:28;;;;;;;;;;;;;;;21.09;49.80;96194.81;1035948;28;1300;-68
2021/08/25 01:31:58;;;;;;;;;;;;;;;21.06;49.59;96190.84;1038873;28;2654;-68
2021/08/25 01:32:29;;;;;;;;;;;;;;;21.08;49.74;96189.81;1039226;28;1301;-68
2021/08/25 01:32:59;;;;;;;;;;;;;;;21.07;49.76;96191.66;1027469;28;1793;-68
2021/08/25 01:33:29;;;;;;;;;;;;;;;21.06;49.80;96196.13;1035633;28;1422;-68
2021/08/25 01:34:03;;;;;;;;;;;;;;;21.06;49.56;96192.72;1035843;28;1344;-68
2021/08/25 01:34:49;;;;;;;;;;;;;;;21.06;49.61;96193.50;1036164;28;1253;-68
2021/08/25 01:35:19;;;;;;;;;;;;;;;21.06;49.74;96185.59;1040796;28;2318;-68
2021/08/25 01:35:49;;;;;;;;;;;;;;;21.06;49.58;96190.84;1041561;28;1124;-68
2021/08/25 01:36:20;;;;;;;;;;;;;;;21.06;49.67;96190.84;1044988;28;1359;-67
2021/08/25 01:36:51;;;;;;;;;;;;;;;21.05;49.56;96186.66;1043100;28;1559;-67
2021/08/25 01:37:21;;;;;;;;;;;;;;;21.05;49.72;96186.66;1039564;28;2430;-68
2021/08/25 01:37:51;;;;;;;;;;;;;;;21.05;49.73;96188.50;1037988;28;1208;-68
2021/08/25 01:38:28;;;;;;;;;;;;;;;21.05;49.76;96186.66;1038646;28;1415;-69
2021/08/25 01:38:58;;;;;;;;;;;;;;;21.05;49.76;96178.75;1039753;28;1202;-67
2021/08/25 01:39:28;;;;;;;;;;;;;;;21.04;49.78;96185.06;1038710;28;1221;-68
2021/08/25 01:39:59;;;;;;;;;;;;;;;21.04;49.61;96182.41;1040871;28;1237;-67
2021/08/25 01:40:30;;;;;;;;;;;;;;;21.04;49.67;96182.41;1034888;28;2507;-66
2021/08/25 01:41:01;;;;;;;;;;;;;;;21.04;49.66;96177.16;1035612;28;1971;-67
2021/08/25 01:41:31;;;;;;;;;;;;;;;21.03;49.79;96188.75;1036061;28;1442;-67
2021/08/25 01:42:02;;;;;;;;;;;;;;;21.03;49.78;96180.84;1039805;28;1350;-69
2021/08/25 01:42:32;;;;;;;;;;;;;;;21.03;49.59;96180.84;1035415;28;1320;-68
2021/08/25 01:43:03;;;;;;;;;;;;;;;21.04;49.82;96177.16;1030819;28;2020;-68
2021/08/25 01:43:36;;;;;;;;;;;;;;;21.04;49.78;96189.56;1031330;28;1203;-67
2021/08/25 01:44:06;;;;;;;;;;;;;;;21.04;49.60;96184.28;1036926;28;1255;-66
2021/08/25 01:44:37;;;;;;;;;;;;;;;21.03;49.85;96186.13;1040867;28;1229;-68
2021/08/25 01:45:07;;;;;;;;;;;;;;;21.04;49.78;96171.09;1043620;28;1797;-69
2021/08/25 01:45:38;;;;;;;;;;;;;;;21.03;49.77;96180.84;1038913;28;2448;-67
2021/08/25 01:46:09;;;;;;;;;;;;;;;21.03;49.89;96175.59;1032991;28;1659;-68
2021/08/25 01:46:40;;;;;;;;;;;;;;;21.03;49.79;96172.94;1027693;28;1477;-67
2021/08/25 01:47:10;;;;;;;;;;;;;;;21.02;49.76;96166.09;1027971;28;1237;-68
2021/08/25 01:47:41;;;;;;;;;;;;;;;21.02;49.60;96163.44;1030469;28;1145;-68
2021/08/25 01:48:11;;;;;;;;;;;;;;;21.01;49.85;96166.31;1040068;28;1240;-68
2021/08/25 01:48:41;;;;;;;;;;;;;;;21.02;49.63;96163.44;1043229;28;1182;-68
2021/08/25 01:49:12;;;;;;;;;;;;;;;21.03;49.61;96169.50;1043896;28;1209;-67
2021/08/25 01:49:43;;;;;;;;;;;;;;;21.02;49.56;96178.47;1039974;28;1202;-67
2021/08/25 01:50:13;;;;;;;;;;;;;;;21.02;49.70;96165.28;1035749;28;1269;-68
2021/08/25 01:50:44;;;;;;;;;;;;;;;21.02;49.51;96167.91;1038787;28;2982;-66
2021/08/25 01:51:14;;;;;;;;;;;;;;;21.01;49.70;96161.84;1039561;28;1268;-68
2021/08/25 01:51:44;;;;;;;;;;;;;;;21.02;49.61;96167.91;1038844;28;1376;-68
2021/08/25 01:52:15;;;;;;;;;;;;;;;21.02;49.58;96173.19;1043407;28;1334;-70
2021/08/25 01:52:45;;;;;;;;;;;;;;;21.02;49.42;96171.34;1041774;28;1722;-67
2021/08/25 01:53:15;;;;;;;;;;;;;;;21.02;49.61;96168.72;1044052;28;1232;-68
2021/08/25 01:53:46;;;;;;;;;;;;;;;21.02;49.72;96163.44;1039971;28;1178;-67
2021/08/25 01:54:16;;;;;;;;;;;;;;;21.02;49.72;96163.44;1040181;28;1245;-68
2021/08/25 01:54:47;;;;;;;;;;;;;;;21.03;49.69;96162.41;1037745;28;1071;-69
2021/08/25 01:55:17;;;;;;;;;;;;;;;21.03;49.78;96166.88;1029824;28;2571;-65
2021/08/25 01:55:48;;;;;;;;;;;;;;;21.03;49.73;96165.03;1035138;28;2523;-67
2021/08/25 01:56:19;;;;;;;;;;;;;;;21.03;49.54;96169.50;1034477;28;1383;-66
2021/08/25 01:56:49;;;;;;;;;;;;;;;21.02;49.80;96162.66;1036152;28;1215;-68
2021/08/25 01:57:19;;;;;;;;;;;;;;;21.02;49.76;96163.44;1043272;28;1320;-68
2021/08/25 01:57:50;;;;;;;;;;;;;;;21.02;49.86;96163.44;1043309;28;2667;-67
2021/08/25 01:58:20;;;;;;;;;;;;;;;21.02;49.51;96163.44;1042866;28;1367;-67
2021/08/25 01:58:51;;;;;;;;;;;;;;;21.02;49.49;96160.81;1039434;28;1254;-68
2021/08/25 01:59:21;;;;;;;;;;;;;;;21.03;49.68;96159.78;1039359;28;1261;-67
2021/08/25 01:59:52;;;;;;;;;;;;;;;21.02;49.57;96152.91;1034013;28;1240;-67
2021/08/25 02:00:22;;;;;;;;;;;;;;;21.02;49.63;96160.00;1034716;28;2481;-68
2021/08/25 02:00:52;;;;;;;;;;;;;;;21.01;49.63;96156.59;1035846;28;1765;-68
2021/08/25 02:01:23;;;;;;;;;;;;;;;21.02;49.71;96158.19;1035051;28;1918;-68
2021/08/25 02:01:53;;;;;;;;;;;;;;;21.00;49.46;96157.63;1035952;28;1281;-71
2021/08/25 02:02:23;;;;;;;;;;;;;;;21.01;49.75;96151.31;1040241;28;1158;-68
2021/08/25 02:02:54;;;;;;;;;;;;;;;21.01;49.56;96153.94;1044903;28;1234;-68
2021/08/25 02:03:24;;;;;;;;;;;;;;;21.01;49.65;96156.59;1037549;28;1273;-68
2021/08/25 02:03:55;;;;;;;;;;;;;;;21.02;49.65;96158.19;1034415;28;2582;-67
2021/08/25 02:04:25;;;;;;;;;;;;;;;21.01;49.91;96155.78;1036764;28;1155;-68
2021/08/25 02:04:55;;;;;;;;;;;;;;;21.00;49.56;96149.72;1036635;28;1274;-69
2021/08/25 02:05:26;;;;;;;;;;;;;;;21.01;49.51;96153.16;1031638;28;2516;-68
2021/08/25 02:05:56;;;;;;;;;;;;;;;21.01;49.76;96155.78;1036442;28;1127;-68
2021/08/25 02:06:26;;;;;;;;;;;;;;;21.01;49.65;96151.31;1030637;28;1258;-67
2021/08/25 02:06:56;;;;;;;;;;;;;;;21.02;49.51;96152.09;1032712;28;1218;-67
2021/08/25 02:07:27;;;;;;;;;;;;;;;21.02;49.58;96145.00;1038448;28;1063;-67
2021/08/25 02:07:57;;;;;;;;;;;;;;;21.03;49.72;96148.44;1040544;28;1277;-69
2021/08/25 02:08:27;;;;;;;;;;;;;;;21.03;49.57;96143.97;1040643;28;1332;-67
2021/08/25 02:08:58;;;;;;;;;;;;;;;21.03;49.70;96143.97;1036583;28;1246;-68
2021/08/25 02:09:28;;;;;;;;;;;;;;;21.04;49.55;96147.38;1032809;28;1258;-67
2021/08/25 02:09:59;;;;;;;;;;;;;;;21.04;49.70;96142.13;1040048;28;1245;-67
2021/08/25 02:10:29;;;;;;;;;;;;;;;21.04;49.56;96144.75;1039589;28;2523;-68
2021/08/25 02:10:59;;;;;;;;;;;;;;;21.04;49.71;96145.53;1044286;28;1295;-68
2021/08/25 02:11:30;;;;;;;;;;;;;;;21.04;49.54;96147.38;1046811;28;1385;-68
2021/08/25 02:12:00;;;;;;;;;;;;;;;21.04;49.47;96150.03;1044675;28;1339;-67
2021/08/25 02:12:30;;;;;;;;;;;;;;;21.03;49.52;96143.16;1040647;28;1660;-68
2021/08/25 02:13:01;;;;;;;;;;;;;;;21.03;49.71;96143.97;1036822;28;1335;-67
2021/08/25 02:13:31;;;;;;;;;;;;;;;21.04;49.71;96145.53;1036683;28;1261;-69
2021/08/25 02:14:01;;;;;;;;;;;;;;;21.04;49.56;96142.88;1036568;28;1101;-68
2021/08/25 02:14:33;;;;;;;;;;;;;;;21.05;49.84;96141.03;1044950;28;1194;-68
2021/08/25 02:15:03;;;;;;;;;;;;;;;21.03;49.52;96138.69;1044103;28;1230;-67
2021/08/25 02:15:33;;;;;;;;;;;;;;;21.04;49.71;96145.53;1042429;28;2472;-69
2021/08/25 02:16:04;;;;;;;;;;;;;;;21.05;49.55;96143.69;1039673;28;1058;-67
2021/08/25 02:16:34;;;;;;;;;;;;;;;21.03;49.75;96141.31;1034337;28;1234;-68
2021/08/25 02:17:06;;;;;;;;;;;;;;;21.05;49.73;96141.03;1029954;28;1185;-68
2021/08/25 02:17:36;;;;;;;;;;;;;;;21.05;49.56;96141.84;1035381;28;1203;-68
2021/08/25 02:18:07;;;;;;;;;;;;;;;21.05;49.74;96146.31;1039260;28;1156;-67
2021/08/25 02:18:37;;;;;;;;;;;;;;;21.06;49.64;96143.41;1038702;28;1213;-68
2021/08/25 02:19:07;;;;;;;;;;;;;;;21.05;49.81;96136.56;1041057;28;1093;-66
2021/08/25 02:19:38;;;;;;;;;;;;;;;21.06;49.66;96140.00;1038653;28;2238;-68
2021/08/25 02:20:08;;;;;;;;;;;;;;;21.06;49.80;96135.50;1039137;28;1096;-67
2021/08/25 02:20:38;;;;;;;;;;;;;;;21.05;49.68;96135.78;1032684;28;2534;-67
2021/08/25 02:21:09;;;;;;;;;;;;;;;21.05;49.63;96131.31;1031009;28;1907;-68
2021/08/25 02:21:39;;;;;;;;;;;;;;;21.04;49.62;96137.63;1033873;28;1289;-67
2021/08/25 02:22:09;;;;;;;;;;;;;;;21.05;49.52;96136.56;1032933;28;1097;-68
2021/08/25 02:22:40;;;;;;;;;;;;;;;21.05;49.60;96131.31;1040688;28;1114;-69
2021/08/25 02:23:10;;;;;;;;;;;;;;;21.06;49.81;96127.59;1036800;28;1219;-68
2021/08/25 02:23:40;;;;;;;;;;;;;;;21.06;49.60;96124.19;1035597;28;1576;-67
2021/08/25 02:24:11;;;;;;;;;;;;;;;21.06;49.60;96130.22;1036792;28;1198;-69
2021/08/25 02:24:41;;;;;;;;;;;;;;;21.06;49.68;96127.59;1032285;28;2480;-67
2021/08/25 02:25:11;;;;;;;;;;;;;;;21.06;49.62;96122.31;1035651;28;2520;-68
2021/08/25 02:25:42;;;;;;;;;;;;;;;21.05;49.68;96120.75;1029810;28;2812;-68
2021/08/25 02:26:16;;;;;;;;;;;;;;;21.08;49.66;96126.56;1032233;28;1328;-68
2021/08/25 02:26:46;;;;;;;;;;;;;;;21.06;49.74;96122.31;1028514;28;1113;-67
2021/08/25 02:27:16;;;;;;;;;;;;;;;21.05;49.74;96120.75;1031486;28;1371;-68
2021/08/25 02:27:47;;;;;;;;;;;;;;;21.08;49.61;96121.28;1033127;28;1148;-68
2021/08/25 02:28:17;;;;;;;;;;;;;;;21.08;49.61;96123.91;1030511;28;1273;-68
2021/08/25 02:28:48;;;;;;;;;;;;;;;21.07;49.55;96120.47;1036070;28;1494;-67
2021/08/25 02:29:18;;;;;;;;;;;;;;;21.06;49.71;96111.78;1040890;28;1466;-68
2021/08/25 02:29:55;;;;;;;;;;;;;;;21.08;49.44;96123.91;1040838;28;1277;-67
2021/08/25 02:30:26;;;;;;;;;;;;;;;21.04;49.71;96113.91;1041952;28;2444;-68
2021/08/25 02:30:56;;;;;;;;;;;;;;;21.06;49.76;96119.69;1036424;28;1957;-68
2021/08/25 02:31:26;;;;;;;;;;;;;;;21.07;49.66;96117.84;1038770;28;1257;-68
2021/08/25 02:31:56;;;;;;;;;;;;;;;21.06;49.67;96117.06;1032841;28;1303;-67
2021/08/25 02:32:27;;;;;;;;;;;;;;;21.06;49.79;96116.28;1028112;28;1160;-68
2021/08/25 02:32:57;;;;;;;;;;;;;;;21.06;49.48;96117.06;1040552;28;1273;-68
2021/08/25 02:33:27;;;;;;;;;;;;;;;21.06;49.75;96111.78;1030535;28;1199;-68
2021/08/25 02:33:58;;;;;;;;;;;;;;;21.06;49.45;96113.66;1031921;28;1662;-69
2021/08/25 02:34:28;;;;;;;;;;;;;;;21.06;49.72;96114.41;1036631;28;1166;-68
2021/08/25 02:34:58;;;;;;;;;;;;;;;21.07;49.69;96112.56;1032288;28;1329;-68
2021/08/25 02:35:28;;;;;;;;;;;;;;;21.08;49.72;96113.38;1035871;28;2555;-69
2021/08/25 02:35:59;;;;;;;;;;;;;;;21.08;49.87;96113.38;1036196;28;2151;-68
2021/08/25 02:36:29;;;;;;;;;;;;;;;21.08;49.66;96114.94;1044956;28;1307;-68
2021/08/25 02:36:59;;;;;;;;;;;;;;;21.09;49.71;96113.09;1040414;28;1239;-67
2021/08/25 02:37:30;;;;;;;;;;;;;;;21.08;49.59;96108.09;1035543;28;2237;-67
2021/08/25 02:38:00;;;;;;;;;;;;;;;21.10;49.63;96116.53;1032597;28;1183;-69
2021/08/25 02:38:31;;;;;;;;;;;;;;;21.09;49.72;96115.72;1032783;28;1285;-67
2021/08/25 02:39:01;;;;;;;;;;;;;;;21.10;49.83;96116.53;1036008;28;1574;-68
2021/08/25 02:39:31;;;;;;;;;;;;;;;21.10;49.70;96113.91;1034923;28;1847;-68
2021/08/25 02:40:03;;;;;;;;;;;;;;;21.09;49.52;96110.47;1039667;28;1088;-67
2021/08/25 02:40:34;;;;;;;;;;;;;;;21.08;49.48;96120.22;1036319;28;2879;-68
2021/08/25 02:41:04;;;;;;;;;;;;;;;21.10;49.55;96116.53;1037773;28;1981;-67
2021/08/25 02:41:35;;;;;;;;;;;;;;;21.10;49.67;96121.81;1038085;28;1372;-66
2021/08/25 02:42:05;;;;;;;;;;;;;;;21.09;49.37;96118.38;1033536;28;1205;-67
2021/08/25 02:42:35;;;;;;;;;;;;;;;21.08;49.81;96120.22;1040490;28;1226;-66
2021/08/25 02:43:06;;;;;;;;;;;;;;;21.08;49.66;96120.22;1036488;28;1097;-67
2021/08/25 02:43:36;;;;;;;;;;;;;;;21.08;49.53;96125.47;1036673;28;1214;-69
2021/08/25 02:44:07;;;;;;;;;;;;;;;21.08;49.45;96121.28;1042713;28;1155;-68
2021/08/25 02:44:38;;;;;;;;;;;;;;;21.08;49.79;96123.91;1042500;28;1182;-68
2021/08/25 02:45:08;;;;;;;;;;;;;;;21.06;49.54;96119.69;1042217;28;1604;-68